createdAt,value
2023-05-02T00:00:54.147Z,17.60
2023-05-02T00:05:55.291Z,19.20
2023-05-02T00:10:56.265Z,13.00
2023-05-02T00:15:57.724Z,19.80
2023-05-02T00:20:58.788Z,14.80
2023-05-02T00:26:00.152Z,11.80
2023-05-02T00:31:01.682Z,11.70
2023-05-02T00:36:02.985Z,10.90
2023-05-02T00:41:05.180Z,14.30
2023-05-02T00:46:07.322Z,10.70
2023-05-02T00:51:11.486Z,11.00
2023-05-02T00:56:12.555Z,10.20
2023-05-02T01:01:29.187Z,9.50
2023-05-02T01:06:42.616Z,8.90
2023-05-02T01:11:52.970Z,8.40
2023-05-02T01:16:56.119Z,12.40
2023-05-02T01:21:59.527Z,14.10
2023-05-02T01:27:14.693Z,9.10
2023-05-02T01:32:19.013Z,11.70
2023-05-02T01:37:22.793Z,25.40
2023-05-02T01:42:26.204Z,9.90
2023-05-02T01:47:30.473Z,9.00
2023-05-02T01:52:32.254Z,11.60
2023-05-02T01:57:35.999Z,9.70
2023-05-02T02:02:38.677Z,11.00
2023-05-02T02:07:40.371Z,9.20
2023-05-02T02:12:44.640Z,11.50
2023-05-02T02:17:49.080Z,11.50
2023-05-02T02:22:52.446Z,9.80
2023-05-02T02:27:53.822Z,9.40
2023-05-02T02:32:55.241Z,8.20
2023-05-02T02:38:28.055Z,8.10
2023-05-02T02:44:13.534Z,9.80
2023-05-02T02:49:28.383Z,8.20
2023-05-02T02:54:40.545Z,7.90
2023-05-02T02:59:50.717Z,10.00
2023-05-02T03:04:54.266Z,7.60
2023-05-02T03:09:55.565Z,8.50
2023-05-02T03:15:13.925Z,9.00
2023-05-02T03:20:16.041Z,6.20
2023-05-02T03:25:17.220Z,9.30
2023-05-02T03:30:19.458Z,6.00
2023-05-02T03:35:21.225Z,9.00
2023-05-02T03:40:22.972Z,5.50
2023-05-02T03:45:24.112Z,6.30
2023-05-02T03:50:26.100Z,7.10
2023-05-02T03:55:27.785Z,4.50
2023-05-02T04:00:30.843Z,9.00
2023-05-02T04:05:34.072Z,6.40
2023-05-02T04:10:35.781Z,7.20
2023-05-02T04:15:40.018Z,8.10
2023-05-02T04:20:44.883Z,9.40
2023-05-02T04:25:56.432Z,8.30
2023-05-02T04:31:05.262Z,12.60
2023-05-02T04:36:09.318Z,12.50
2023-05-02T04:41:11.085Z,8.30
2023-05-02T04:46:17.884Z,8.60
2023-05-02T04:51:19.243Z,8.30
2023-05-02T04:56:23.033Z,9.60
2023-05-02T05:01:27.115Z,5.70
2023-05-02T05:06:29.059Z,8.60
2023-05-02T05:11:30.964Z,6.50
2023-05-02T05:16:32.956Z,7.70
2023-05-02T05:21:34.441Z,8.60
2023-05-02T05:26:36.838Z,10.10
2023-05-02T05:31:38.077Z,7.90
2023-05-02T05:36:40.808Z,5.60
2023-05-02T05:41:42.619Z,10.40
2023-05-02T05:46:45.700Z,5.10
2023-05-02T05:51:47.367Z,8.60
2023-05-02T05:56:49.005Z,7.20
2023-05-02T06:01:53.436Z,5.40
2023-05-02T06:06:56.624Z,7.30
2023-05-02T06:11:58.163Z,5.70
2023-05-02T06:17:00.044Z,4.10
2023-05-02T06:22:02.085Z,9.70
2023-05-02T06:27:03.206Z,5.90
2023-05-02T06:32:05.788Z,4.40
2023-05-02T06:37:06.880Z,5.00
2023-05-02T06:42:07.936Z,5.20
2023-05-02T06:47:09.492Z,6.80
2023-05-02T06:52:10.582Z,5.20
2023-05-02T06:57:11.715Z,3.90
2023-05-02T07:02:12.695Z,6.00
2023-05-02T07:07:17.933Z,3.90
2023-05-02T07:12:19.082Z,6.70
2023-05-02T07:17:20.729Z,7.20
2023-05-02T07:22:21.668Z,4.70
2023-05-02T07:27:22.973Z,4.30
2023-05-02T07:32:27.408Z,3.00
2023-05-02T07:37:34.335Z,4.20
2023-05-02T07:42:35.796Z,12.60
2023-05-02T07:47:37.025Z,4.40
2023-05-02T07:52:38.102Z,5.50
2023-05-02T07:57:39.352Z,3.80
2023-05-02T08:02:42.029Z,4.70
2023-05-02T08:07:43.281Z,4.20
2023-05-02T08:12:44.298Z,3.90
2023-05-02T08:17:45.306Z,3.30
2023-05-02T08:22:46.329Z,3.90
2023-05-02T08:27:47.310Z,6.10
2023-05-02T08:32:48.360Z,4.80
2023-05-02T08:37:49.366Z,4.60
2023-05-02T08:42:52.425Z,5.60
2023-05-02T08:47:56.821Z,4.90
2023-05-02T08:52:58.973Z,3.80
2023-05-02T08:58:00.866Z,4.10
2023-05-02T09:03:05.689Z,5.00
2023-05-02T09:08:07.838Z,3.80
2023-05-02T09:13:29.832Z,6.70
2023-05-02T09:18:51.338Z,4.50
2023-05-02T09:23:54.873Z,4.60
2023-05-02T09:28:56.831Z,3.10
2023-05-02T09:34:08.225Z,4.60
2023-05-02T09:39:13.028Z,4.20
2023-05-02T09:44:19.119Z,5.50
2023-05-02T09:49:44.188Z,4.60
2023-05-02T09:54:45.837Z,4.50
2023-05-02T09:59:55.216Z,7.70
2023-05-02T10:04:57.382Z,4.90
2023-05-02T10:10:01.095Z,4.60
2023-05-02T10:15:03.924Z,6.50
2023-05-02T10:20:07.130Z,7.50
2023-05-02T10:25:08.821Z,4.40
2023-05-02T10:30:12.606Z,6.00
2023-05-02T10:35:15.441Z,5.40
2023-05-02T10:40:18.235Z,5.90
2023-05-02T10:45:34.008Z,5.60
2023-05-02T10:50:51.617Z,7.10
2023-05-02T10:56:09.008Z,6.10
2023-05-02T11:01:35.824Z,7.10
2023-05-02T11:06:57.158Z,8.10
2023-05-02T11:16:59.261Z,10.40
2023-05-02T11:22:18.917Z,7.70
2023-05-02T11:27:28.842Z,8.40
2023-05-02T11:32:46.105Z,7.10
2023-05-02T11:37:54.702Z,6.30
2023-05-02T11:42:58.030Z,7.90
2023-05-02T11:47:59.413Z,7.70
2023-05-02T11:53:00.646Z,8.40
2023-05-02T11:58:01.726Z,10.90
2023-05-02T12:03:03.627Z,9.10
2023-05-02T12:08:04.758Z,10.50
2023-05-02T12:13:06.093Z,7.00
2023-05-02T12:18:07.742Z,8.20
2023-05-02T12:23:10.104Z,7.70
2023-05-02T12:28:11.655Z,5.40
2023-05-02T12:33:13.193Z,9.70
2023-05-02T12:38:17.565Z,8.30
2023-05-02T12:43:21.288Z,5.40
2023-05-02T12:48:26.793Z,5.30
2023-05-02T12:53:42.554Z,5.20
2023-05-02T12:58:45.501Z,3.20
2023-05-02T13:03:47.577Z,2.60
2023-05-02T13:08:48.671Z,5.20
2023-05-02T13:13:49.813Z,5.80
2023-05-02T13:18:50.987Z,4.50
2023-05-02T13:23:52.779Z,4.70
2023-05-02T13:28:53.833Z,3.40
2023-05-02T13:33:55.082Z,3.60
2023-05-02T13:38:57.005Z,2.90
2023-05-02T13:43:58.074Z,4.00
2023-05-02T13:48:59.131Z,3.30
2023-05-02T13:54:00.635Z,2.60
2023-05-02T13:59:02.052Z,3.00
2023-05-02T14:04:07.874Z,4.20
2023-05-02T14:09:09.189Z,5.10
2023-05-02T14:14:11.915Z,4.10
2023-05-02T14:19:13.159Z,3.90
2023-05-02T14:24:15.796Z,3.60
2023-05-02T14:29:17.442Z,3.60
2023-05-02T14:34:18.509Z,4.30
2023-05-02T14:39:19.692Z,5.20
2023-05-02T14:44:20.765Z,5.30
2023-05-02T14:49:21.884Z,4.20
2023-05-02T14:54:27.889Z,3.10
2023-05-02T14:59:29.819Z,2.60
2023-05-02T15:04:31.106Z,4.50
2023-05-02T15:09:32.493Z,4.20
2023-05-02T15:14:33.535Z,3.20
2023-05-02T15:19:34.607Z,5.20
2023-05-02T15:24:35.872Z,5.50
2023-05-02T15:29:37.067Z,4.90
2023-05-02T15:34:38.122Z,4.60
2023-05-02T15:39:39.151Z,6.00
2023-05-02T15:44:40.106Z,5.30
2023-05-02T15:49:41.112Z,6.30
2023-05-02T15:54:42.343Z,11.80
2023-05-02T15:59:43.538Z,11.60
2023-05-02T16:04:44.610Z,7.00
2023-05-02T16:09:45.597Z,7.50
2023-05-02T16:14:46.973Z,7.90
2023-05-02T16:19:47.950Z,7.30
2023-05-02T16:24:49.178Z,8.70
2023-05-02T16:29:50.581Z,8.50
2023-05-02T16:34:51.839Z,11.00
2023-05-02T16:39:54.723Z,11.00
2023-05-02T16:44:56.943Z,12.60
2023-05-02T16:49:59.178Z,15.50
2023-05-02T16:55:00.794Z,11.80
2023-05-02T17:00:05.543Z,16.90
2023-05-02T17:05:09.011Z,18.30
2023-05-02T17:10:11.171Z,16.00
2023-05-02T17:15:13.436Z,22.80
2023-05-02T17:20:16.641Z,16.00
2023-05-02T17:25:17.812Z,15.80
2023-05-02T17:30:19.412Z,34.60
2023-05-02T17:35:20.648Z,19.80
2023-05-02T17:40:21.845Z,13.60
2023-05-02T17:45:23.045Z,14.50
2023-05-02T17:50:24.152Z,18.40
2023-05-02T17:55:25.167Z,15.50
2023-05-02T18:00:26.172Z,12.50
2023-05-02T18:05:27.411Z,12.50
2023-05-02T18:10:28.798Z,19.00
2023-05-02T18:15:29.839Z,16.70
2023-05-02T18:20:31.033Z,22.90
2023-05-02T18:25:35.268Z,24.40
2023-05-02T18:30:37.237Z,29.50
2023-05-02T18:35:38.228Z,31.90
2023-05-02T18:40:39.298Z,32.00
2023-05-02T18:45:40.599Z,33.30
2023-05-02T18:50:42.006Z,26.30
2023-05-02T18:55:43.010Z,32.00
2023-05-02T19:00:44.002Z,29.10
2023-05-02T19:05:45.158Z,30.20
2023-05-02T19:10:46.686Z,30.20
2023-05-02T19:15:47.734Z,26.60
2023-05-02T19:20:49.964Z,32.30
2023-05-02T19:26:01.159Z,29.40
2023-05-02T19:31:16.476Z,25.40
2023-05-02T19:36:22.464Z,23.50
2023-05-02T19:41:23.723Z,24.10
2023-05-02T19:46:24.806Z,16.70
2023-05-02T19:51:27.377Z,20.50
2023-05-02T19:56:28.976Z,19.40
2023-05-02T20:01:30.526Z,21.60
2023-05-02T20:06:32.768Z,22.00
2023-05-02T20:11:33.930Z,21.90
2023-05-02T20:16:35.143Z,21.20
2023-05-02T20:21:36.706Z,22.20
2023-05-02T20:26:37.671Z,26.10
2023-05-02T20:31:39.525Z,38.10
2023-05-02T20:36:40.491Z,37.40
2023-05-02T20:41:41.656Z,30.90
2023-05-02T20:46:43.142Z,26.80
2023-05-02T20:51:44.228Z,25.00
2023-05-02T20:56:45.356Z,25.00
2023-05-02T21:01:46.373Z,29.30
2023-05-02T21:06:48.325Z,28.10
2023-05-02T21:11:50.608Z,26.60
2023-05-02T21:16:52.604Z,22.10
2023-05-02T21:21:53.718Z,24.70
2023-05-02T21:26:54.873Z,29.10
2023-05-02T21:31:55.981Z,19.40
2023-05-02T21:36:57.498Z,24.30
2023-05-02T21:42:18.755Z,23.60
2023-05-02T21:47:26.870Z,23.10
2023-05-02T21:52:30.998Z,20.20
2023-05-02T21:57:31.964Z,23.20
2023-05-02T22:02:33.058Z,19.10
2023-05-02T22:07:34.205Z,23.20
2023-05-02T22:12:35.194Z,28.60
2023-05-02T22:17:36.425Z,35.70
2023-05-02T22:22:37.610Z,24.30
2023-05-02T22:27:38.960Z,24.40
2023-05-02T22:32:40.734Z,21.20
2023-05-02T22:37:41.972Z,20.60
2023-05-02T22:42:42.951Z,25.50
2023-05-02T22:47:44.013Z,23.20
2023-05-02T22:52:46.287Z,19.50
2023-05-02T22:57:47.267Z,23.20
2023-05-02T23:02:48.623Z,19.90
2023-05-02T23:07:50.537Z,17.90
2023-05-02T23:12:55.543Z,20.70
2023-05-02T23:17:56.565Z,21.20
2023-05-02T23:22:57.658Z,22.80
2023-05-02T23:27:58.823Z,23.90
2023-05-02T23:33:00.303Z,19.10
2023-05-02T23:38:27.539Z,23.00
2023-05-02T23:43:48.987Z,23.30
2023-05-02T23:49:09.986Z,29.80
2023-05-02T23:54:11.000Z,29.80
2023-05-02T23:59:12.279Z,30.90
